Walhalla, ND (58282)

12:57 PM CST on December 22, 2014 (GMT -0600)
Walhalla | Change Station
CLOSE
Current Station
Airport
Location: Walhalla,
Elevation: 951 ft
Nearby Weather Stations

Elev 951 ft 48.94 °N, 97.90 °W | Updated 1 hour ago

Mist
Mist
32 °F
Feels Like 29 °F
N
4
Wind Variable Wind from ENE

Today
High -- | Low -- °F
--% Chance of Precip.
Yesterday
High -- | Low -- °F
Precip. -- in
8:23 AM 4:37 PM
New Moon, 1% visible
Pressure 29.58 in
Visibility 1.5 miles
Clouds
Windchill 29 °F
Dew Point 32 °F
Humidity 100%
Rainfall 0.00 in
Snow Depth Not available.
UV Not available.
Pollen .10 out of 12
Air Quality Not available.
Flu Activity Not available.
METAR K96D 221735Z AUTO 07003KT 1 1/2SM BR 00/00 A2958 RMK AO2

More Conditions Fewer Conditions

Pressure 29.58 in
Visibility 1.5 miles
Clouds
Windchill 29 °F
Dew Point 32 °F
Humidity 100%
Rainfall 0.00 in
Snow Depth Not available.
UV Not available.
Pollen .10 out of 12
Air Quality Not available.
Flu Activity Not available.
METAR K96D 221735Z AUTO 07003KT 1 1/2SM BR 00/00 A2958 RMK AO2

More Conditions Fewer Conditions

10-Day Weather Forecast

Almanac

Astronomy

Dec. 22, 2014 Rise Set
Actual Time
Civil Twilight
Nautical Twilight
Astronomical Twilight
Moon
Length of Visible Light
Length of Day
Tomorrow will be .
, % of the Moon is Illuminated

Today's Extremes

State Highs State Lows

Community

WunderPhotos

Upload Photos

1,779,687 photos uploaded!

WunderBlogs® & News

Nearby

Air Quality

  Air Quality AQ Index Pollutant
Not available.

Snow Depth

Station Depth Elevation

Earthquake Activity

City Distance Mag. Time & Date
Minimum magnitude displayed is 2.5.

Coastal Water Temperatures

Place Temperature

Nearby Weather Stations